createdAt,value
2018-08-10T00:00:42.627Z,1.20
2018-08-10T00:03:11.533Z,1.30
2018-08-10T00:05:41.328Z,1.37
2018-08-10T00:08:10.278Z,1.30
2018-08-10T00:10:38.869Z,1.10
2018-08-10T00:13:07.776Z,1.30
2018-08-10T00:15:36.869Z,1.30
2018-08-10T00:18:05.764Z,1.17
2018-08-10T00:20:34.856Z,1.43
2018-08-10T00:23:03.367Z,1.40
2018-08-10T00:25:32.416Z,1.37
2018-08-10T00:28:02.281Z,1.10
2018-08-10T00:30:30.951Z,1.10
2018-08-10T00:32:59.469Z,1.43
2018-08-10T00:35:28.520Z,1.50
2018-08-10T00:37:57.543Z,1.67
2018-08-10T00:40:26.664Z,1.50
2018-08-10T00:42:55.649Z,1.60
2018-08-10T00:45:25.283Z,1.60
2018-08-10T00:47:53.750Z,2.20
2018-08-10T00:50:22.792Z,2.00
2018-08-10T00:52:51.223Z,2.13
2018-08-10T00:55:20.184Z,1.90
2018-08-10T00:57:49.234Z,2.20
2018-08-10T01:00:19.410Z,1.97
2018-08-10T01:02:47.835Z,1.97
2018-08-10T01:05:17.034Z,1.53
2018-08-10T01:07:45.947Z,1.63
2018-08-10T01:10:15.911Z,2.00
2018-08-10T01:12:44.523Z,1.90
2018-08-10T01:15:15.193Z,1.87
2018-08-10T01:17:44.753Z,2.10
2018-08-10T01:20:18.022Z,2.33
2018-08-10T01:22:51.961Z,2.13
2018-08-10T01:25:22.427Z,2.20
2018-08-10T01:28:03.475Z,2.17
2018-08-10T01:30:33.523Z,2.00
2018-08-10T01:33:02.946Z,1.93
2018-08-10T01:35:32.326Z,1.77
2018-08-10T01:38:02.088Z,1.77
2018-08-10T01:40:31.135Z,1.90
2018-08-10T01:42:59.737Z,1.80
2018-08-10T01:45:28.248Z,2.00
2018-08-10T01:47:56.818Z,1.90
2018-08-10T01:50:25.719Z,1.97
2018-08-10T01:52:54.316Z,1.80
2018-08-10T01:55:22.774Z,2.10
2018-08-10T01:57:51.373Z,1.90
2018-08-10T02:00:19.888Z,1.97
2018-08-10T02:02:49.447Z,1.57
2018-08-10T02:05:18.333Z,2.00
2018-08-10T02:07:47.308Z,1.93
2018-08-10T02:10:17.405Z,1.80
2018-08-10T02:12:54.966Z,1.40
2018-08-10T02:15:23.905Z,1.00
2018-08-10T02:17:53.005Z,1.50
2018-08-10T02:20:22.920Z,1.10
2018-08-10T02:22:51.521Z,1.03
2018-08-10T02:25:21.708Z,1.10
2018-08-10T02:27:51.456Z,1.00
2018-08-10T02:30:21.296Z,0.93
2018-08-10T02:32:51.040Z,0.87
2018-08-10T02:35:19.525Z,0.90
2018-08-10T02:37:51.550Z,0.90
2018-08-10T02:40:22.632Z,0.80
2018-08-10T02:42:52.077Z,0.70
2018-08-10T02:45:21.260Z,0.60
2018-08-10T02:47:50.704Z,0.70
2018-08-10T02:50:19.160Z,0.60
2018-08-10T02:52:48.045Z,0.40
2018-08-10T02:55:16.944Z,0.50
2018-08-10T02:57:49.280Z,0.93
2018-08-10T03:00:18.580Z,0.50
2018-08-10T03:02:47.286Z,0.50
2018-08-10T03:05:15.742Z,0.50
2018-08-10T03:07:44.407Z,0.50
2018-08-10T03:10:13.474Z,0.50
2018-08-10T03:12:42.612Z,0.60
2018-08-10T03:15:13.333Z,0.23
2018-08-10T03:17:42.258Z,0.70
2018-08-10T03:20:11.539Z,0.60
2018-08-10T03:22:40.516Z,0.53
2018-08-10T03:25:09.850Z,0.60
2018-08-10T03:27:38.602Z,0.90
2018-08-10T03:30:07.916Z,0.70
2018-08-10T03:32:36.798Z,0.63
2018-08-10T03:35:05.791Z,0.90
2018-08-10T03:37:34.836Z,0.90
2018-08-10T03:40:04.229Z,0.80
2018-08-10T03:42:37.251Z,0.63
2018-08-10T03:45:06.364Z,0.80
2018-08-10T03:47:35.539Z,0.93
2018-08-10T03:50:04.365Z,0.67
2018-08-10T03:52:32.982Z,0.90
2018-08-10T03:55:01.422Z,1.13
2018-08-10T03:57:30.423Z,0.80
2018-08-10T03:59:59.351Z,0.70
2018-08-10T04:02:34.964Z,1.00
2018-08-10T04:05:03.471Z,1.17
2018-08-10T04:07:34.435Z,0.80
2018-08-10T04:10:02.984Z,1.00
2018-08-10T04:12:31.585Z,0.80
2018-08-10T04:15:37.399Z,1.07
2018-08-10T04:18:05.773Z,1.20
2018-08-10T04:20:34.106Z,1.00
2018-08-10T04:23:02.878Z,1.17
2018-08-10T04:25:31.612Z,1.07
2018-08-10T04:28:00.388Z,1.40
2018-08-10T04:30:28.763Z,1.57
2018-08-10T04:32:57.126Z,1.40
2018-08-10T04:35:25.901Z,2.00
2018-08-10T04:37:54.250Z,1.80
2018-08-10T04:40:23.118Z,2.40
2018-08-10T04:42:51.921Z,2.43
2018-08-10T04:45:20.730Z,2.63
2018-08-10T04:47:50.070Z,2.27
2018-08-10T04:50:19.346Z,2.20
2018-08-10T04:52:47.729Z,2.43
2018-08-10T04:55:16.525Z,2.57
2018-08-10T04:57:45.332Z,2.43
2018-08-10T05:00:14.955Z,2.30
2018-08-10T05:02:44.153Z,2.10
2018-08-10T05:05:12.534Z,2.27
2018-08-10T05:07:41.749Z,1.90
2018-08-10T05:10:10.400Z,1.90
2018-08-10T05:12:39.845Z,1.70
2018-08-10T05:15:09.862Z,1.80
2018-08-10T05:17:39.171Z,1.83
2018-08-10T05:21:11.600Z,1.50
2018-08-10T05:23:40.386Z,1.60
2018-08-10T05:26:09.152Z,1.40
2018-08-10T05:28:38.015Z,1.20
2018-08-10T05:31:06.849Z,1.23
2018-08-10T05:33:35.624Z,1.10
2018-08-10T05:36:04.000Z,1.30
2018-08-10T05:38:32.361Z,1.13
2018-08-10T05:41:01.219Z,1.30
2018-08-10T05:43:29.967Z,1.30
2018-08-10T05:45:58.794Z,1.40
2018-08-10T05:48:28.920Z,1.33
2018-08-10T05:50:57.718Z,1.40
2018-08-10T05:53:26.134Z,1.50
2018-08-10T05:55:54.865Z,1.17
2018-08-10T05:58:23.584Z,1.10
2018-08-10T06:00:52.422Z,1.10
2018-08-10T06:03:20.885Z,1.20
2018-08-10T06:05:49.594Z,1.43
2018-08-10T06:08:18.375Z,1.30
2018-08-10T06:10:47.188Z,1.33
2018-08-10T06:13:15.634Z,1.60
2018-08-10T06:15:43.991Z,1.30
2018-08-10T06:18:12.404Z,1.40
2018-08-10T06:20:41.195Z,1.57
2018-08-10T06:23:09.589Z,1.10
2018-08-10T06:25:38.474Z,1.47
2018-08-10T06:28:06.898Z,1.20
2018-08-10T06:30:35.318Z,1.60
2018-08-10T06:33:03.870Z,1.03
2018-08-10T06:35:32.600Z,2.00
2018-08-10T06:38:01.078Z,1.40
2018-08-10T06:40:29.897Z,1.00
2018-08-10T06:42:58.662Z,1.43
2018-08-10T06:45:27.467Z,1.03
2018-08-10T06:47:56.237Z,1.70
2018-08-10T06:50:24.982Z,0.90
2018-08-10T06:52:53.798Z,1.43
2018-08-10T06:55:22.184Z,1.17
2018-08-10T06:57:50.960Z,1.17
2018-08-10T07:00:19.735Z,1.20
2018-08-10T07:02:48.521Z,1.13
2018-08-10T07:05:17.318Z,1.13
2018-08-10T07:07:46.127Z,1.00
2018-08-10T07:10:14.945Z,1.63
2018-08-10T07:12:43.304Z,1.40
2018-08-10T07:15:11.718Z,1.40
2018-08-10T07:17:40.069Z,1.50
2018-08-10T07:20:09.054Z,1.30
2018-08-10T07:22:37.992Z,1.20
2018-08-10T07:25:07.268Z,1.20
2018-08-10T07:27:35.719Z,1.23
2018-08-10T07:30:04.183Z,1.37
2018-08-10T07:32:33.028Z,1.40
2018-08-10T07:35:01.768Z,1.07
2018-08-10T07:37:30.154Z,1.33
2018-08-10T07:39:58.910Z,1.40
2018-08-10T07:42:27.706Z,1.70
2018-08-10T07:44:56.500Z,1.60
2018-08-10T07:47:25.360Z,1.90
2018-08-10T07:49:54.086Z,1.50
2018-08-10T07:52:22.876Z,1.73
2018-08-10T07:54:51.265Z,1.60
2018-08-10T07:57:20.012Z,1.40
2018-08-10T07:59:48.859Z,1.10
2018-08-10T08:02:17.270Z,1.50
2018-08-10T08:04:45.653Z,1.70
2018-08-10T08:07:14.480Z,1.30
2018-08-10T08:09:42.923Z,1.63
2018-08-10T08:12:11.317Z,1.07
2018-08-10T08:14:39.762Z,1.37
2018-08-10T08:17:08.675Z,1.40
2018-08-10T08:19:37.556Z,1.43
2018-08-10T08:22:15.964Z,1.87
2018-08-10T08:24:45.234Z,1.27
2018-08-10T08:27:15.438Z,1.23
2018-08-10T08:29:44.322Z,1.40
2018-08-10T08:32:13.282Z,1.80
2018-08-10T08:37:10.308Z,1.70
2018-08-10T08:40:49.981Z,1.55
2018-08-10T08:43:23.940Z,1.00
2018-08-10T08:45:56.351Z,1.63
2018-08-10T08:48:25.271Z,1.13
2018-08-10T09:10:46.979Z,1.40
2018-08-10T09:13:15.390Z,1.17
2018-08-10T09:15:44.208Z,1.00
2018-08-10T09:18:13.108Z,0.90
2018-08-10T09:20:41.478Z,1.10
2018-08-10T09:23:10.588Z,1.10
2018-08-10T09:25:39.383Z,1.20
2018-08-10T09:28:08.232Z,1.83
2018-08-10T09:30:37.097Z,1.50
2018-08-10T09:33:05.925Z,1.30
2018-08-10T09:38:02.341Z,1.30
2018-08-10T09:40:31.190Z,1.60
2018-08-10T09:42:59.601Z,1.53
2018-08-10T09:45:28.040Z,1.60
2018-08-10T09:47:56.803Z,1.30
2018-08-10T09:50:25.612Z,1.30
2018-08-10T09:52:57.849Z,1.87
2018-08-10T09:55:36.222Z,1.73
2018-08-10T09:58:08.544Z,1.47
2018-08-10T10:00:42.313Z,1.60
2018-08-10T10:05:47.274Z,1.27
2018-08-10T10:08:16.560Z,1.40
2018-08-10T10:13:12.951Z,1.47
2018-08-10T10:23:05.072Z,1.30
2018-08-10T10:25:33.439Z,1.37
2018-08-10T10:28:01.804Z,1.67
2018-08-10T10:30:30.666Z,1.30
2018-08-10T10:32:59.053Z,1.27
2018-08-10T10:35:28.193Z,1.43
2018-08-10T10:37:57.056Z,1.50
2018-08-10T10:40:25.420Z,1.40
2018-08-10T10:42:53.873Z,1.50
2018-08-10T10:45:22.276Z,1.50
2018-08-10T10:47:51.063Z,1.53
2018-08-10T10:50:19.838Z,1.30
2018-08-10T10:52:48.707Z,1.40
2018-08-10T10:55:17.463Z,1.20
2018-08-10T10:57:46.692Z,1.80
2018-08-10T11:00:15.829Z,1.97
2018-08-10T11:02:44.606Z,1.37
2018-08-10T11:05:13.402Z,1.30
2018-08-10T11:07:42.182Z,1.60
2018-08-10T11:10:12.496Z,1.50
2018-08-10T11:12:41.312Z,1.30
2018-08-10T11:15:10.241Z,1.10
2018-08-10T11:17:39.084Z,1.50
2018-08-10T11:20:08.478Z,1.47
2018-08-10T11:22:37.644Z,1.60
2018-08-10T11:25:07.223Z,1.40
2018-08-10T11:27:36.064Z,1.53
2018-08-10T11:30:06.251Z,1.47
2018-08-10T11:32:35.248Z,1.87
2018-08-10T11:35:04.426Z,1.57
2018-08-10T11:37:33.347Z,1.93
2018-08-10T11:40:02.214Z,1.57
2018-08-10T11:42:31.027Z,1.93
2018-08-10T11:44:59.545Z,1.77
2018-08-10T11:47:27.978Z,1.33
2018-08-10T11:49:57.355Z,1.70
2018-08-10T11:52:26.244Z,1.30
2018-08-10T11:54:55.053Z,1.50
2018-08-10T12:02:19.744Z,1.53
2018-08-10T12:04:48.553Z,1.90
2018-08-10T12:07:16.908Z,1.70
2018-08-10T12:09:45.301Z,2.10
2018-08-10T12:12:13.759Z,1.87
2018-08-10T12:14:42.185Z,2.10
2018-08-10T12:17:11.088Z,1.80
2018-08-10T12:19:39.892Z,1.90
2018-08-10T12:25:16.661Z,1.43
2018-08-10T12:27:45.468Z,1.53
2018-08-10T12:30:14.345Z,1.47
2018-08-10T12:32:42.828Z,1.57
2018-08-10T12:35:12.133Z,1.77
2018-08-10T12:37:40.975Z,1.80
2018-08-10T12:40:09.407Z,1.90
2018-08-10T12:42:38.732Z,1.77
2018-08-10T12:45:07.553Z,1.80
2018-08-10T12:47:36.266Z,2.00
2018-08-10T12:50:04.726Z,2.10
2018-08-10T12:52:33.520Z,1.70
2018-08-10T12:55:02.359Z,1.67
2018-08-10T12:57:31.223Z,1.87
2018-08-10T12:59:59.996Z,1.57
2018-08-10T13:02:28.818Z,1.70
2018-08-10T13:04:57.625Z,2.20
2018-08-10T13:07:26.424Z,2.10
2018-08-10T13:09:55.217Z,1.57
2018-08-10T13:12:23.635Z,1.77
2018-08-10T13:14:52.888Z,1.70
2018-08-10T13:17:21.671Z,1.80
2018-08-10T13:19:50.050Z,1.63
2018-08-10T13:22:18.964Z,1.50
2018-08-10T13:24:47.478Z,1.80
2018-08-10T13:27:15.924Z,1.50
2018-08-10T13:29:44.355Z,1.40
2018-08-10T13:32:12.834Z,1.40
2018-08-10T13:34:41.680Z,1.80
2018-08-10T13:37:10.110Z,1.83
2018-08-10T13:39:38.904Z,1.40
2018-08-10T13:42:07.467Z,2.13
2018-08-10T13:44:35.878Z,1.23
2018-08-10T13:47:04.339Z,1.30
2018-08-10T13:49:33.154Z,1.50
2018-08-10T13:52:01.568Z,1.27
2018-08-10T13:54:29.978Z,1.33
2018-08-10T13:56:58.837Z,1.37
2018-08-10T13:59:27.632Z,1.30
2018-08-10T14:01:56.617Z,1.37
2018-08-10T14:04:24.997Z,1.37
2018-08-10T14:06:53.767Z,1.43
2018-08-10T14:09:22.616Z,1.50
2018-08-10T14:11:51.509Z,1.00
2018-08-10T14:14:20.353Z,1.40
2018-08-10T14:16:48.831Z,1.33
2018-08-10T14:19:17.289Z,1.53
2018-08-10T14:21:46.103Z,1.10
2018-08-10T14:24:15.467Z,1.23
2018-08-10T14:26:44.358Z,1.27
2018-08-10T14:29:13.184Z,1.53
2018-08-10T14:31:41.607Z,1.30
2018-08-10T14:34:10.393Z,1.00
2018-08-10T14:36:39.268Z,1.33
2018-08-10T14:39:08.737Z,0.97
2018-08-10T14:41:37.666Z,1.30
2018-08-10T14:44:06.133Z,1.77
2018-08-10T14:46:35.631Z,1.20
2018-08-10T14:49:04.559Z,0.90
2018-08-10T14:51:34.395Z,1.30
2018-08-10T14:54:03.362Z,1.40
2018-08-10T14:56:31.758Z,1.27
2018-08-10T14:59:00.907Z,1.03
2018-08-10T15:01:29.393Z,1.33
2018-08-10T15:03:58.307Z,0.90
2018-08-10T15:06:26.710Z,1.50
2018-08-10T15:08:55.563Z,1.20
2018-08-10T15:11:24.369Z,1.23
2018-08-10T15:13:53.207Z,1.50
2018-08-10T15:16:21.970Z,1.40
2018-08-10T15:18:50.892Z,1.07
2018-08-10T15:21:19.307Z,1.13
2018-08-10T15:23:47.711Z,1.33
2018-08-10T15:26:16.540Z,1.13
2018-08-10T15:28:45.353Z,1.30
2018-08-10T15:31:14.276Z,1.00
2018-08-10T15:33:43.080Z,1.27
2018-08-10T15:36:11.940Z,1.03
2018-08-10T15:38:40.788Z,1.30
2018-08-10T15:41:09.234Z,1.50
2018-08-10T15:43:38.059Z,1.30
2018-08-10T15:46:06.962Z,1.27
2018-08-10T15:48:35.785Z,0.97
2018-08-10T15:51:04.668Z,1.23
2018-08-10T15:53:33.478Z,1.13
2018-08-10T15:56:02.013Z,1.17
2018-08-10T15:58:30.828Z,1.10
2018-08-10T16:00:59.650Z,1.20
2018-08-10T16:03:28.472Z,1.13
2018-08-10T16:08:25.260Z,1.23
2018-08-10T16:10:53.700Z,0.80
2018-08-10T16:13:22.191Z,1.10
2018-08-10T16:15:51.012Z,1.05
2018-08-10T16:18:19.831Z,1.40
2018-08-10T16:20:48.678Z,1.20
2018-08-10T16:23:17.087Z,1.50
2018-08-10T16:25:45.515Z,1.13
2018-08-10T16:28:14.360Z,1.17
2018-08-10T16:30:43.267Z,1.23
2018-08-10T16:33:11.678Z,1.30
2018-08-10T16:35:40.538Z,1.20
2018-08-10T16:38:09.404Z,1.30
2018-08-10T16:43:06.282Z,1.03
2018-08-10T16:45:35.233Z,1.10
2018-08-10T16:48:03.715Z,1.10
2018-08-10T16:50:32.124Z,1.27
2018-08-10T16:53:00.996Z,1.20
2018-08-10T16:55:30.108Z,1.20
2018-08-10T16:57:58.551Z,1.10
2018-08-10T17:00:27.098Z,1.40
2018-08-10T17:02:56.000Z,1.20
2018-08-10T17:05:24.962Z,0.90
2018-08-10T17:07:53.704Z,1.27
2018-08-10T17:10:22.115Z,1.20
2018-08-10T17:12:50.506Z,1.27
2018-08-10T17:15:20.277Z,1.00
2018-08-10T17:17:49.554Z,1.00
2018-08-10T17:20:18.393Z,1.03
2018-08-10T17:22:47.283Z,1.40
2018-08-10T17:25:18.775Z,1.30
2018-08-10T17:27:47.663Z,1.33
2018-08-10T17:30:17.356Z,1.07
2018-08-10T17:35:15.255Z,1.57
2018-08-10T17:37:45.215Z,1.50
2018-08-10T17:40:13.617Z,1.20
2018-08-10T17:42:42.075Z,1.07
2018-08-10T17:45:12.007Z,1.40
2018-08-10T17:47:40.793Z,1.30
2018-08-10T17:50:14.555Z,1.00
2018-08-10T17:52:46.001Z,1.20
2018-08-10T17:55:15.998Z,1.20
2018-08-10T17:57:44.495Z,1.07
2018-08-10T18:00:14.987Z,1.00
2018-08-10T18:02:43.583Z,1.20
2018-08-10T18:05:13.693Z,1.30
2018-08-10T18:07:42.185Z,1.03
2018-08-10T18:10:10.963Z,1.10
2018-08-10T18:12:40.258Z,1.10
2018-08-10T18:15:11.163Z,1.07
2018-08-10T18:17:40.781Z,1.10
2018-08-10T18:20:15.574Z,1.07
2018-08-10T18:22:45.249Z,1.20
2018-08-10T18:25:14.079Z,1.70
2018-08-10T18:27:43.431Z,1.20
2018-08-10T18:30:16.493Z,1.37
2018-08-10T18:32:45.116Z,1.10
2018-08-10T18:35:13.908Z,1.60
2018-08-10T18:37:43.406Z,1.33
2018-08-10T18:40:13.095Z,1.37
2018-08-10T18:42:43.060Z,0.97
2018-08-10T18:45:12.394Z,1.40
2018-08-10T18:47:41.475Z,1.20
2018-08-10T18:50:11.960Z,1.00
2018-08-10T18:52:41.811Z,1.87
2018-08-10T18:55:12.335Z,1.30
2018-08-10T18:57:40.733Z,1.17
2018-08-10T19:00:17.399Z,1.30
2018-08-10T19:02:45.953Z,1.20
2018-08-10T19:05:16.143Z,1.27
2018-08-10T19:07:45.502Z,1.37
2018-08-10T19:10:19.521Z,1.10
2018-08-10T19:12:47.949Z,1.40
2018-08-10T19:15:16.855Z,1.13
2018-08-10T19:17:45.777Z,1.20
2018-08-10T19:20:15.255Z,1.13
2018-08-10T19:22:44.774Z,1.50
2018-08-10T19:25:14.568Z,0.87
2018-08-10T19:27:43.393Z,1.60
2018-08-10T19:30:16.911Z,1.47
2018-08-10T19:32:46.687Z,1.00
2018-08-10T19:35:16.044Z,1.10
2018-08-10T19:37:44.939Z,1.20
2018-08-10T19:40:15.172Z,1.60
2018-08-10T19:42:44.032Z,1.40
2018-08-10T19:45:13.015Z,1.60
2018-08-10T19:47:41.971Z,1.53
2018-08-10T19:50:11.872Z,1.53
2018-08-10T19:52:40.376Z,1.43
2018-08-10T19:55:11.355Z,1.20
2018-08-10T19:57:40.523Z,1.73
2018-08-10T20:00:09.816Z,1.20
2018-08-10T20:02:38.236Z,1.77
2018-08-10T20:05:07.516Z,1.20
2018-08-10T20:07:37.037Z,1.37
2018-08-10T20:10:07.225Z,1.33
2018-08-10T20:12:36.117Z,1.43
2018-08-10T20:15:05.620Z,1.40
2018-08-10T20:17:34.130Z,1.23
2018-08-10T20:20:03.034Z,1.50
2018-08-10T20:22:31.859Z,1.40
2018-08-10T20:25:00.311Z,1.60
2018-08-10T20:27:28.736Z,1.60
2018-08-10T20:29:57.142Z,1.70
2018-08-10T20:32:25.701Z,1.50
2018-08-10T20:34:54.518Z,1.37
2018-08-10T20:37:23.067Z,1.57
2018-08-10T20:39:51.907Z,1.57
2018-08-10T20:42:20.826Z,1.53
2018-08-10T20:44:49.247Z,2.13
2018-08-10T20:47:18.261Z,1.57
2018-08-10T20:49:47.069Z,1.70
2018-08-10T20:52:15.490Z,1.50
2018-08-10T20:54:44.286Z,2.13
2018-08-10T20:57:12.711Z,1.57
2018-08-10T20:59:41.609Z,1.60
2018-08-10T21:02:10.004Z,1.47
2018-08-10T21:04:38.781Z,1.30
2018-08-10T21:07:07.959Z,1.60
2018-08-10T21:09:36.353Z,1.30
2018-08-10T21:12:04.761Z,1.23
2018-08-10T21:14:33.720Z,1.57
2018-08-10T21:17:02.544Z,1.80
2018-08-10T21:19:30.998Z,1.50
2018-08-10T21:21:59.506Z,1.57
2018-08-10T21:24:28.332Z,1.30
2018-08-10T21:26:57.380Z,1.10
2018-08-10T21:29:26.205Z,1.67
2018-08-10T21:31:54.612Z,1.30
2018-08-10T21:34:23.467Z,1.30
2018-08-10T21:36:51.905Z,1.30
2018-08-10T21:39:20.306Z,1.40
2018-08-10T21:41:49.084Z,1.57
2018-08-10T21:44:17.888Z,1.73
2018-08-10T21:46:46.316Z,1.63
2018-08-10T21:49:15.151Z,1.90
2018-08-10T21:51:43.583Z,1.43
2018-08-10T21:54:12.475Z,1.73
2018-08-10T21:56:40.995Z,1.50
2018-08-10T21:59:09.829Z,1.40
2018-08-10T22:01:38.792Z,1.80
2018-08-10T22:04:07.660Z,1.60
2018-08-10T22:06:36.075Z,1.13
2018-08-10T22:09:07.055Z,1.30
2018-08-10T22:11:35.885Z,1.10
2018-08-10T22:14:09.569Z,1.13
2018-08-10T22:16:43.225Z,1.60
2018-08-10T22:19:13.158Z,1.40
2018-08-10T22:21:42.034Z,1.27
2018-08-10T22:24:10.929Z,1.03
2018-08-10T22:26:39.775Z,1.40
2018-08-10T22:29:08.707Z,1.10
2018-08-10T22:31:37.127Z,1.17
2018-08-10T22:34:05.627Z,1.57
2018-08-10T22:36:34.532Z,1.30
2018-08-10T22:39:03.699Z,1.07
2018-08-10T22:41:39.433Z,1.17
2018-08-10T22:44:07.914Z,1.27
2018-08-10T22:46:36.318Z,1.20
2018-08-10T22:49:04.786Z,1.20
2018-08-10T22:51:33.669Z,1.07
2018-08-10T22:54:02.130Z,1.30
2018-08-10T22:56:30.998Z,1.40
2018-08-10T22:58:59.828Z,1.50
2018-08-10T23:01:28.682Z,1.20
2018-08-10T23:03:57.172Z,1.20
2018-08-10T23:06:26.055Z,1.60
2018-08-10T23:08:54.908Z,1.00
2018-08-10T23:11:23.325Z,1.20
2018-08-10T23:13:51.768Z,1.00
2018-08-10T23:16:20.141Z,1.30
2018-08-10T23:18:48.963Z,1.20
2018-08-10T23:21:17.867Z,1.20
2018-08-10T23:23:46.634Z,1.43
2018-08-10T23:26:15.420Z,1.23
2018-08-10T23:28:43.839Z,1.07
2018-08-10T23:31:12.204Z,1.37
2018-08-10T23:33:40.661Z,0.90
2018-08-10T23:36:09.051Z,1.53
2018-08-10T23:38:37.502Z,1.10
2018-08-10T23:41:06.300Z,1.00
2018-08-10T23:43:35.656Z,1.10
2018-08-10T23:46:04.082Z,1.20
2018-08-10T23:48:32.502Z,1.10
2018-08-10T23:51:03.084Z,1.17
2018-08-10T23:53:31.924Z,1.63
2018-08-10T23:56:00.353Z,1.07
2018-08-10T23:58:29.254Z,1.40
